Time;durP1;ratioP1;P1;durP2;ratioP2;P2;SDS_P1;SDS_P2;PMS_P1;PMS_P2;Temp;Humidity;BMP_temperature;BMP_pressure;BME280_temperature;BME280_humidity;BME280_pressure;Samples;Min_cycle;Max_cycle;Signal;HPM_P1;HPM_P2
2023/04/25 00:01:18;;;;;;;16.50;3.00;;;6.90;99.90;;;;;;5024353;28;20036;-77
2023/04/25 00:03:45;;;;;;;19.45;3.50;;;6.90;99.90;;;;;;5052919;28;20040;-77
2023/04/25 00:06:13;;;;;;;12.75;2.72;;;6.90;99.90;;;;;;5045381;28;20302;-77
2023/04/25 00:08:45;;;;;;;10.23;2.60;;;6.80;99.90;;;;;;5071895;28;20131;-77
2023/04/25 00:11:18;;;;;;;12.57;3.30;;;6.80;99.90;;;;;;5064669;28;21715;-76
2023/04/25 00:13:43;;;;;;;12.45;3.08;;;6.80;99.90;;;;;;5038710;28;20032;-78
2023/04/25 00:16:10;;;;;;;12.57;2.67;;;6.80;99.90;;;;;;5066084;28;20044;-77
2023/04/25 00:18:36;;;;;;;15.55;3.15;;;6.80;99.90;;;;;;5052850;28;20528;-77
2023/04/25 00:21:02;;;;;;;15.18;2.55;;;6.80;99.90;;;;;;5074827;28;20154;-79
2023/04/25 00:23:28;;;;;;;11.23;2.58;;;6.80;99.90;;;;;;5065386;28;20040;-77
2023/04/25 00:25:54;;;;;;;14.13;2.80;;;6.80;99.90;;;;;;5064369;28;20486;-78
2023/04/25 00:28:20;;;;;;;15.20;2.85;;;6.80;99.90;;;;;;5058089;28;20044;-76
2023/04/25 00:30:46;;;;;;;18.88;3.20;;;6.80;99.90;;;;;;5065391;28;20137;-77
2023/04/25 00:33:18;;;;;;;21.08;2.90;;;6.80;99.90;;;;;;5056787;28;20051;-77
2023/04/25 00:35:44;;;;;;;13.57;2.65;;;6.80;99.90;;;;;;5052261;28;20493;-77
2023/04/25 00:38:09;;;;;;;8.82;2.72;;;6.80;99.90;;;;;;5049902;28;20051;-77
2023/04/25 00:40:35;;;;;;;9.88;2.40;;;6.80;99.90;;;;;;5044382;28;20123;-76
2023/04/25 00:43:02;;;;;;;10.15;2.33;;;6.10;99.90;;;;;;5049567;28;20184;-77
2023/04/25 00:45:29;;;;;;;9.32;2.60;;;6.70;99.90;;;;;;5052442;28;20040;-76
2023/04/25 00:47:57;;;;;;;9.68;2.20;;;6.70;99.90;;;;;;5061461;28;20048;-76
2023/04/25 00:50:24;;;;;;;8.77;2.55;;;6.70;99.90;;;;;;5051528;28;20239;-77
2023/04/25 00:52:54;;;;;;;12.88;2.35;;;6.70;99.90;;;;;;5063461;28;20114;-77
2023/04/25 00:55:20;;;;;;;14.38;2.60;;;6.70;99.90;;;;;;5053181;28;20051;-78
2023/04/25 00:57:48;;;;;;;13.38;3.00;;;6.70;99.90;;;;;;5061180;28;20044;-77
2023/04/25 01:00:15;;;;;;;10.82;2.50;;;6.70;99.90;;;;;;5048826;28;20068;-77
2023/04/25 01:02:42;;;;;;;6.30;2.13;;;6.70;99.90;;;;;;5068327;28;20051;-76
2023/04/25 01:05:08;;;;;;;8.68;2.00;;;6.70;99.90;;;;;;5065099;28;20237;-77
2023/04/25 01:07:40;;;;;;;7.68;1.85;;;6.60;99.90;;;;;;5066316;28;20052;-77
2023/04/25 01:10:07;;;;;;;14.23;2.50;;;6.60;99.90;;;;;;5059359;28;20059;-78
2023/04/25 01:12:34;;;;;;;11.13;2.45;;;6.50;99.90;;;;;;5020230;28;20165;-78
2023/04/25 01:15:00;;;;;;;8.98;1.98;;;6.60;99.90;;;;;;5058892;28;20064;-76
2023/04/25 01:17:27;;;;;;;8.02;1.90;;;6.60;99.90;;;;;;5049360;28;20048;-77
2023/04/25 01:19:53;;;;;;;7.82;2.28;;;6.60;99.90;;;;;;5057352;28;20339;-75
2023/04/25 01:22:23;;;;;;;7.07;1.90;;;6.60;99.90;;;;;;5049398;28;21727;-79
2023/04/25 01:24:59;;;;;;;10.57;2.10;;;6.50;99.90;;;;;;5029651;28;20047;-80
2023/04/25 01:27:26;;;;;;;10.82;1.98;;;6.50;99.90;;;;;;5044301;28;20528;-77
2023/04/25 01:29:53;;;;;;;11.68;2.28;;;6.50;99.90;;;;;;5017133;28;20067;-77
2023/04/25 01:32:19;;;;;;;10.30;2.47;;;6.50;99.90;;;;;;5037518;28;20044;-77
2023/04/25 01:34:47;;;;;;;9.25;1.90;;;6.50;99.90;;;;;;5055663;28;20058;-77
2023/04/25 01:37:12;;;;;;;13.18;2.28;;;6.50;99.90;;;;;;5039268;28;20056;-77
2023/04/25 01:39:44;;;;;;;10.65;2.35;;;6.50;99.90;;;;;;5042049;28;20048;-78
2023/04/25 01:42:13;;;;;;;13.30;2.72;;;6.50;99.90;;;;;;5074403;28;20521;-78
2023/04/25 01:44:39;;;;;;;6.53;2.60;;;6.50;99.90;;;;;;5050357;28;20486;-78
2023/04/25 01:47:05;;;;;;;13.35;2.38;;;6.50;99.90;;;;;;5048161;28;20470;-78
2023/04/25 01:49:31;;;;;;;13.02;2.63;;;6.50;99.90;;;;;;5054839;28;20043;-75
2023/04/25 01:51:57;;;;;;;13.73;1.90;;;6.50;99.90;;;;;;5055449;28;20039;-77
2023/04/25 01:54:22;;;;;;;7.82;1.83;;;6.60;99.90;;;;;;5036484;28;20047;-76
2023/04/25 01:56:51;;;;;;;4.43;1.80;;;6.50;99.90;;;;;;5057481;28;20540;-77
2023/04/25 01:59:20;;;;;;;7.05;1.60;;;6.50;99.90;;;;;;5056088;28;20052;-79
2023/04/25 02:01:46;;;;;;;5.50;1.80;;;6.40;99.90;;;;;;5061292;28;20300;-78
2023/04/25 02:04:17;;;;;;;10.48;2.20;;;6.40;99.90;;;;;;5055836;28;20056;-77
2023/04/25 02:06:43;;;;;;;7.43;1.90;;;6.30;99.90;;;;;;5042645;28;20405;-77
2023/04/25 02:09:09;;;;;;;7.95;1.92;;;6.30;99.90;;;;;;5036661;28;20783;-77
2023/04/25 02:11:36;;;;;;;10.18;1.95;;;6.30;99.90;;;;;;5055386;28;20471;-77
2023/04/25 02:14:02;;;;;;;10.40;2.28;;;6.20;99.90;;;;;;5054514;28;20131;-77
2023/04/25 02:16:30;;;;;;;8.77;1.90;;;6.20;99.90;;;;;;5047546;28;20054;-77
2023/04/25 02:18:56;;;;;;;10.68;2.03;;;6.20;99.90;;;;;;5050985;28;20207;-78
2023/04/25 02:21:21;;;;;;;10.55;2.15;;;6.10;99.90;;;;;;5037282;28;20091;-77
2023/04/25 02:23:49;;;;;;;11.10;1.92;;;6.10;99.90;;;;;;5050565;28;20044;-77
2023/04/25 02:26:17;;;;;;;10.45;2.35;;;6.10;99.90;;;;;;5052072;28;20486;-78
2023/04/25 02:28:43;;;;;;;8.23;2.55;;;6.10;99.90;;;;;;5026552;28;20793;-77
2023/04/25 02:31:10;;;;;;;13.40;2.75;;;5.10;99.90;;;;;;5038876;28;20069;-77
2023/04/25 02:33:35;;;;;;;11.90;2.40;;;6.10;99.90;;;;;;5052718;28;20051;-76
2023/04/25 02:36:02;;;;;;;10.35;2.72;;;6.30;99.90;;;;;;5040925;28;20035;-79
2023/04/25 02:38:28;;;;;;;8.73;2.15;;;6.30;99.90;;;;;;5033784;28;20047;-78
2023/04/25 02:40:57;;;;;;;9.73;1.80;;;6.30;99.90;;;;;;5061155;28;21399;-76
2023/04/25 02:43:23;;;;;;;8.02;2.28;;;6.30;99.90;;;;;;5054629;28;20205;-78
2023/04/25 02:45:48;;;;;;;5.95;1.40;;;6.30;99.90;;;;;;5051308;28;20048;-78
2023/04/25 02:48:14;;;;;;;6.93;1.50;;;6.20;99.90;;;;;;5035875;28;21392;-79
2023/04/25 02:50:47;;;;;;;6.38;1.60;;;6.20;99.90;;;;;;5037093;28;20393;-77
2023/04/25 02:53:13;;;;;;;9.52;1.98;;;6.20;99.90;;;;;;5028891;28;20132;-76
2023/04/25 02:55:39;;;;;;;8.10;1.95;;;6.20;99.90;;;;;;5045759;28;20048;-77
2023/04/25 02:58:08;;;;;;;11.40;2.15;;;6.10;99.90;;;;;;5040811;28;21318;-75
2023/04/25 03:00:34;;;;;;;8.63;1.90;;;6.10;99.90;;;;;;5053564;28;20048;-77
2023/04/25 03:02:59;;;;;;;9.20;2.08;;;6.20;99.90;;;;;;5047005;28;20055;-76
2023/04/25 03:05:26;;;;;;;11.57;1.80;;;6.20;99.90;;;;;;5043794;28;20044;-75
2023/04/25 03:07:52;;;;;;;10.05;1.92;;;6.20;99.90;;;;;;5049605;28;20063;-78
2023/04/25 03:10:18;;;;;;;10.88;1.90;;;6.20;99.90;;;;;;5041971;28;20612;-77
2023/04/25 03:12:44;;;;;;;9.20;1.52;;;6.20;99.90;;;;;;5049155;28;20040;-77
2023/04/25 03:15:10;;;;;;;8.15;1.67;;;6.20;99.90;;;;;;5018531;28;20039;-77
2023/04/25 03:17:42;;;;;;;9.93;1.73;;;6.10;99.90;;;;;;5046425;28;20170;-77
2023/04/25 03:20:09;;;;;;;11.07;2.58;;;6.20;99.90;;;;;;5016694;28;20041;-76
2023/04/25 03:22:36;;;;;;;10.80;2.20;;;5.20;99.90;;;;;;5022385;28;20048;-76
2023/04/25 03:25:04;;;;;;;6.65;1.35;;;6.20;99.90;;;;;;5043278;28;21013;-77
2023/04/25 03:27:30;;;;;;;8.40;1.90;;;6.20;99.90;;;;;;5031820;28;20130;-76
2023/04/25 03:30:02;;;;;;;13.98;2.63;;;6.20;99.90;;;;;;5064160;28;20052;-77
2023/04/25 03:32:28;;;;;;;8.60;1.98;;;6.20;99.90;;;;;;5031485;28;20107;-78
2023/04/25 03:34:54;;;;;;;6.75;1.98;;;6.20;99.90;;;;;;5019299;28;20035;-76
2023/04/25 03:37:20;;;;;;;8.52;1.88;;;6.30;99.90;;;;;;5030434;28;20730;-78
2023/04/25 03:39:49;;;;;;;8.68;1.83;;;6.30;99.90;;;;;;5034319;28;20101;-77
2023/04/25 03:42:15;;;;;;;12.50;2.28;;;6.30;99.90;;;;;;5025158;28;20055;-77
2023/04/25 03:44:43;;;;;;;8.75;2.05;;;5.30;99.90;;;;;;5048081;28;21078;-77
2023/04/25 03:47:09;;;;;;;7.72;2.38;;;6.20;99.90;;;;;;5048887;28;20445;-76
2023/04/25 03:49:36;;;;;;;7.72;1.90;;;6.20;99.90;;;;;;5027365;28;20075;-76
2023/04/25 03:52:03;;;;;;;7.10;2.05;;;6.20;99.90;;;;;;5038366;28;20071;-78
2023/04/25 03:54:29;;;;;;;7.90;1.63;;;6.10;99.90;;;;;;5049278;28;20603;-77
2023/04/25 03:56:55;;;;;;;11.60;1.80;;;6.10;99.90;;;;;;5051436;28;20054;-77
2023/04/25 03:59:21;;;;;;;9.82;2.38;;;6.10;99.90;;;;;;5051982;28;20052;-77
2023/04/25 04:01:46;;;;;;;10.75;2.03;;;6.10;99.90;;;;;;5039919;28;20130;-75
2023/04/25 04:04:18;;;;;;;7.63;1.63;;;6.10;99.90;;;;;;5057351;28;20410;-77
2023/04/25 04:06:45;;;;;;;7.07;1.88;;;6.10;99.90;;;;;;5056295;28;20046;-78
2023/04/25 04:09:12;;;;;;;8.77;1.60;;;6.00;99.90;;;;;;5043721;28;20043;-76
2023/04/25 04:11:39;;;;;;;6.88;1.75;;;6.00;99.90;;;;;;5056840;28;20062;-78
2023/04/25 04:14:08;;;;;;;8.60;1.77;;;5.90;99.90;;;;;;5055494;28;20611;-76
2023/04/25 04:16:39;;;;;;;7.47;1.98;;;5.90;99.90;;;;;;5054616;28;20051;-77
2023/04/25 04:19:06;;;;;;;6.03;1.60;;;5.80;99.90;;;;;;5062837;28;20144;-77
2023/04/25 04:21:33;;;;;;;3.92;1.20;;;5.90;99.90;;;;;;5039007;28;20157;-76
2023/04/25 04:23:59;;;;;;;8.95;1.95;;;5.80;99.90;;;;;;5055931;28;20212;-77
2023/04/25 04:26:25;;;;;;;7.57;1.75;;;5.80;99.90;;;;;;5023751;28;20468;-76
2023/04/25 04:28:54;;;;;;;7.40;1.50;;;5.70;99.90;;;;;;5068184;28;20048;-78
2023/04/25 04:31:22;;;;;;;9.18;1.95;;;5.70;99.90;;;;;;5038913;28;20133;-76
2023/04/25 04:33:48;;;;;;;5.47;1.42;;;5.60;99.90;;;;;;5040722;28;20052;-76
2023/04/25 04:36:15;;;;;;;5.90;1.23;;;5.60;99.90;;;;;;5040176;28;20051;-76
2023/04/25 04:38:42;;;;;;;5.20;1.60;;;5.50;99.90;;;;;;5021215;28;20055;-76
2023/04/25 04:41:08;;;;;;;6.03;1.40;;;5.50;99.90;;;;;;5024861;28;20441;-76
2023/04/25 04:43:33;;;;;;;5.20;1.08;;;5.40;99.90;;;;;;5037082;28;20080;-77
2023/04/25 04:46:05;;;;;;;3.47;1.40;;;5.40;99.90;;;;;;5040781;28;20036;-78
2023/04/25 04:48:33;;;;;;;7.57;1.50;;;5.60;99.90;;;;;;5046803;28;20131;-76
2023/04/25 04:51:00;;;;;;;5.40;1.58;;;5.50;99.90;;;;;;5039798;28;20130;-78
2023/04/25 04:53:27;;;;;;;7.93;1.42;;;5.50;99.90;;;;;;5044101;28;20121;-77
2023/04/25 04:55:53;;;;;;;9.02;2.22;;;5.50;99.90;;;;;;5050021;28;20518;-78
2023/04/25 04:58:20;;;;;;;7.05;1.70;;;5.60;99.90;;;;;;5054876;28;20059;-78
2023/04/25 05:00:46;;;;;;;8.35;1.92;;;5.60;99.90;;;;;;5045233;28;20723;-78
2023/04/25 05:03:12;;;;;;;6.07;2.17;;;5.60;99.90;;;;;;5025252;28;20145;-76
2023/04/25 05:05:39;;;;;;;13.35;2.30;;;5.70;99.90;;;;;;5025771;28;20069;-78
2023/04/25 05:08:07;;;;;;;13.85;2.70;;;5.70;99.90;;;;;;5015118;28;20126;-76
2023/04/25 05:10:36;;;;;;;7.88;1.85;;;6.40;99.90;;;;;;5047126;28;20112;-77
2023/04/25 05:13:03;;;;;;;11.20;2.78;;;5.80;99.90;;;;;;5046117;28;20043;-77
2023/04/25 05:15:29;;;;;;;10.73;2.20;;;5.90;99.90;;;;;;5057091;28;20754;-77
2023/04/25 05:17:55;;;;;;;9.73;1.85;;;5.90;99.90;;;;;;5034056;28;20444;-77
2023/04/25 05:20:21;;;;;;;10.88;2.20;;;5.90;99.90;;;;;;5051124;28;20800;-77
2023/04/25 05:22:46;;;;;;;10.15;2.42;;;6.00;99.90;;;;;;5047947;28;20052;-77
2023/04/25 05:25:15;;;;;;;9.40;2.05;;;6.00;99.90;;;;;;5043564;28;20043;-77
2023/04/25 05:27:46;;;;;;;12.23;2.08;;;5.90;99.90;;;;;;5046528;28;20411;-77
2023/04/25 05:30:15;;;;;;;7.63;2.10;;;5.90;99.90;;;;;;5039140;28;20040;-77
2023/04/25 05:32:46;;;;;;;9.77;1.70;;;5.90;99.90;;;;;;5027969;28;20043;-77
2023/04/25 05:35:12;;;;;;;9.50;2.13;;;5.90;99.90;;;;;;5032607;28;20075;-77
2023/04/25 05:37:38;;;;;;;9.18;2.15;;;6.00;99.90;;;;;;5046657;28;20040;-78
2023/04/25 05:40:07;;;;;;;5.75;2.00;;;6.00;99.90;;;;;;5046003;28;20086;-78
2023/04/25 05:42:33;;;;;;;9.35;2.00;;;6.00;99.90;;;;;;5055627;28;20103;-79
2023/04/25 05:45:00;;;;;;;6.13;1.45;;;6.10;99.90;;;;;;5046268;28;20040;-78
2023/04/25 05:47:29;;;;;;;8.20;2.13;;;6.10;99.90;;;;;;5059432;28;20500;-77
2023/04/25 05:49:55;;;;;;;8.85;1.65;;;6.10;99.90;;;;;;5060928;28;20108;-77
2023/04/25 05:52:20;;;;;;;6.00;1.50;;;6.10;99.90;;;;;;5030484;28;20051;-77
2023/04/25 05:54:46;;;;;;;9.68;1.92;;;6.10;99.90;;;;;;5048688;28;20043;-77
2023/04/25 05:57:41;;;;;;;8.07;1.98;;;6.20;99.90;;;;;;5059479;28;20518;-78
2023/04/25 06:00:09;;;;;;;13.98;1.60;;;6.20;99.90;;;;;;5065035;28;20143;-77
2023/04/25 06:02:36;;;;;;;7.47;2.00;;;6.20;99.90;;;;;;5064941;28;20048;-77
2023/04/25 06:05:05;;;;;;;5.32;1.42;;;6.20;99.90;;;;;;5060735;28;20047;-77
2023/04/25 06:07:32;;;;;;;8.27;2.13;;;6.30;99.90;;;;;;5057388;28;20052;-78
2023/04/25 06:09:59;;;;;;;7.22;1.50;;;6.30;99.90;;;;;;5059308;28;20134;-77
2023/04/25 06:12:28;;;;;;;4.90;1.40;;;6.40;99.90;;;;;;5043938;28;20119;-76
2023/04/25 06:14:54;;;;;;;6.45;1.67;;;6.40;99.90;;;;;;5056480;28;20040;-77
2023/04/25 06:17:20;;;;;;;7.72;1.65;;;6.50;99.90;;;;;;5041613;28;20044;-77
2023/04/25 06:19:46;;;;;;;6.72;1.52;;;6.50;99.90;;;;;;5050558;28;20060;-76
2023/04/25 06:22:11;;;;;;;6.13;1.63;;;6.40;99.90;;;;;;5034722;28;20079;-77
2023/04/25 06:24:37;;;;;;;5.38;1.65;;;6.60;99.90;;;;;;5032335;28;20044;-77
2023/04/25 06:27:03;;;;;;;5.55;1.73;;;6.60;99.90;;;;;;5067446;28;20048;-77
2023/04/25 06:29:29;;;;;;;6.53;1.42;;;6.60;99.90;;;;;;5032984;28;20093;-77
2023/04/25 06:31:57;;;;;;;10.65;1.85;;;6.70;99.90;;;;;;5059396;28;20050;-77
2023/04/25 06:34:23;;;;;;;9.13;2.17;;;6.80;99.90;;;;;;5059744;28;21023;-77
2023/04/25 06:36:49;;;;;;;12.52;2.90;;;6.80;99.90;;;;;;5059750;28;20040;-77
2023/04/25 06:39:16;;;;;;;5.95;2.08;;;6.90;99.90;;;;;;5041228;28;20067;-78
2023/04/25 06:41:42;;;;;;;8.40;1.67;;;6.90;99.90;;;;;;5055305;28;20197;-77
2023/04/25 06:44:07;;;;;;;9.38;2.25;;;7.00;99.90;;;;;;5058446;28;20554;-77
2023/04/25 06:46:33;;;;;;;6.68;2.03;;;6.90;99.90;;;;;;5048260;28;20044;-77
2023/04/25 06:48:59;;;;;;;5.35;1.60;;;6.80;99.90;;;;;;5058519;28;20402;-77
2023/04/25 06:51:28;;;;;;;7.07;2.00;;;6.80;99.90;;;;;;5058746;28;20466;-75
2023/04/25 06:53:53;;;;;;;4.65;1.80;;;6.70;99.90;;;;;;5047499;28;20497;-78
2023/04/25 06:56:20;;;;;;;4.60;1.38;;;6.80;99.90;;;;;;5052287;28;20053;-76
2023/04/25 06:58:47;;;;;;;6.32;1.30;;;6.80;99.90;;;;;;5054262;28;20778;-76
2023/04/25 07:01:12;;;;;;;9.32;1.70;;;6.80;99.90;;;;;;5078946;28;20077;-77
2023/04/25 07:03:38;;;;;;;8.35;2.40;;;6.90;99.90;;;;;;5053150;28;20063;-77
2023/04/25 07:06:04;;;;;;;11.60;4.35;;;7.00;99.90;;;;;;5066202;28;20043;-77
2023/04/25 07:08:30;;;;;;;11.18;2.30;;;7.10;99.90;;;;;;5050704;28;20497;-76
2023/04/25 07:10:56;;;;;;;9.95;2.10;;;7.40;99.90;;;;;;5062008;28;20040;-78
2023/04/25 07:13:21;;;;;;;10.57;2.45;;;7.60;99.90;;;;;;5048915;28;20149;-77
2023/04/25 07:15:48;;;;;;;9.73;2.42;;;7.80;99.90;;;;;;5051142;28;20052;-76
2023/04/25 07:18:14;;;;;;;11.98;2.33;;;8.10;99.90;;;;;;5062401;28;20040;-77
2023/04/25 07:20:41;;;;;;;6.63;1.58;;;8.30;99.90;;;;;;5059574;28;20486;-76
2023/04/25 07:23:07;;;;;;;5.78;1.35;;;8.30;99.90;;;;;;5048573;28;20054;-76
2023/04/25 07:25:33;;;;;;;4.45;1.10;;;8.00;99.90;;;;;;5046610;28;20044;-76
2023/04/25 07:28:00;;;;;;;5.53;1.40;;;7.80;99.90;;;;;;5062307;28;20043;-76
2023/04/25 07:30:25;;;;;;;6.80;1.70;;;7.70;99.90;;;;;;5051789;28;20044;-76
2023/04/25 07:32:51;;;;;;;3.85;1.05;;;7.20;99.90;;;;;;5048079;28;20039;-77
2023/04/25 07:35:18;;;;;;;6.32;1.50;;;7.60;99.90;;;;;;5047211;28;20306;-76
2023/04/25 07:37:43;;;;;;;3.85;1.30;;;7.60;99.90;;;;;;5061744;28;20055;-77
2023/04/25 07:40:09;;;;;;;5.05;1.40;;;7.50;99.90;;;;;;5051849;28;20044;-77
2023/04/25 07:42:35;;;;;;;4.22;1.30;;;7.50;99.90;;;;;;5063191;28;20105;-77
2023/04/25 07:45:02;;;;;;;3.35;1.52;;;7.50;99.90;;;;;;5060602;28;20048;-77
2023/04/25 07:47:28;;;;;;;5.97;1.40;;;7.50;99.90;;;;;;5064499;28;20043;-77
2023/04/25 07:50:06;;;;;;;6.03;1.80;;;7.80;99.90;;;;;;5038416;28;20126;-77
2023/04/25 07:52:32;;;;;;;11.45;1.70;;;8.10;99.90;;;;;;5068031;28;20036;-77
2023/04/25 07:55:01;;;;;;;6.95;1.58;;;8.30;99.90;;;;;;5063333;28;20510;-76
2023/04/25 07:57:27;;;;;;;6.22;1.77;;;8.60;99.90;;;;;;5042329;28;20181;-76
2023/04/25 07:59:54;;;;;;;9.50;1.85;;;8.90;99.90;;;;;;5042219;28;20155;-77
2023/04/25 08:02:19;;;;;;;6.47;1.80;;;9.10;99.90;;;;;;5076804;28;20061;-77
2023/04/25 08:04:46;;;;;;;7.18;1.50;;;9.30;99.90;;;;;;5055007;28;21329;-77
2023/04/25 08:07:12;;;;;;;7.40;1.45;;;9.40;99.90;;;;;;5073048;28;20037;-77
2023/04/25 08:09:38;;;;;;;6.47;1.40;;;9.60;99.90;;;;;;5064234;28;20116;-77
2023/04/25 08:12:04;;;;;;;6.65;1.45;;;9.90;99.90;;;;;;5054783;28;20177;-78
2023/04/25 08:14:35;;;;;;;7.75;1.65;;;10.10;99.90;;;;;;5062796;28;20048;-78
2023/04/25 08:17:03;;;;;;;5.03;1.67;;;10.30;99.90;;;;;;5066891;28;20055;-79
2023/04/25 08:19:30;;;;;;;7.72;1.85;;;10.50;99.90;;;;;;5064874;28;20390;-78
2023/04/25 08:21:56;;;;;;;7.30;1.63;;;10.60;99.90;;;;;;5062786;28;20074;-77
2023/04/25 08:24:23;;;;;;;10.73;1.77;;;11.00;99.90;;;;;;5063952;28;20666;-76
2023/04/25 08:26:52;;;;;;;6.97;1.48;;;11.10;99.90;;;;;;5060923;28;20115;-77
2023/04/25 08:29:17;;;;;;;9.65;2.03;;;11.20;99.90;;;;;;5062536;28;20119;-78
2023/04/25 08:31:45;;;;;;;5.47;1.58;;;11.20;99.90;;;;;;5051752;28;20159;-78
2023/04/25 08:34:11;;;;;;;7.05;1.55;;;11.30;99.90;;;;;;5065895;28;20077;-78
2023/04/25 08:36:37;;;;;;;6.40;1.50;;;11.30;99.90;;;;;;5058041;28;20048;-78
2023/04/25 08:39:02;;;;;;;6.07;1.48;;;11.50;99.90;;;;;;5049338;28;20055;-78
2023/04/25 08:41:28;;;;;;;7.20;1.90;;;11.40;99.90;;;;;;5056968;28;20040;-77
2023/04/25 08:43:57;;;;;;;8.77;1.90;;;11.10;99.90;;;;;;5043855;28;20046;-78
2023/04/25 08:46:23;;;;;;;9.25;1.75;;;10.80;99.90;;;;;;5051818;28;20593;-77
2023/04/25 08:48:56;;;;;;;7.47;1.52;;;10.50;99.90;;;;;;5048346;28;20047;-77
2023/04/25 08:51:27;;;;;;;8.75;1.63;;;10.30;99.90;;;;;;5053158;28;20344;-78
2023/04/25 08:53:54;;;;;;;8.55;1.73;;;10.10;99.90;;;;;;5057596;28;20048;-76
2023/04/25 08:56:22;;;;;;;6.43;1.60;;;10.00;99.90;;;;;;5062416;28;20386;-77
2023/04/25 08:58:50;;;;;;;8.60;1.73;;;9.70;99.90;;;;;;5039413;28;20546;-77
2023/04/25 09:01:16;;;;;;;7.22;1.60;;;9.40;99.90;;;;;;5024610;28;20051;-78
2023/04/25 09:03:43;;;;;;;9.32;1.98;;;9.10;99.90;;;;;;5041804;28;20040;-77
2023/04/25 09:06:11;;;;;;;6.38;1.58;;;8.90;99.90;;;;;;5043768;28;20402;-77
2023/04/25 09:08:37;;;;;;;5.13;1.35;;;8.80;99.90;;;;;;5061837;28;20047;-79
2023/04/25 09:11:03;;;;;;;10.00;1.65;;;8.70;99.90;;;;;;5061592;28;20055;-78
2023/04/25 09:13:30;;;;;;;7.18;1.88;;;8.80;99.90;;;;;;5066859;28;20040;-79
2023/04/25 09:16:02;;;;;;;8.00;1.70;;;9.10;99.90;;;;;;5051686;28;20505;-77
2023/04/25 09:18:30;;;;;;;4.85;1.83;;;9.50;99.90;;;;;;5052950;28;20035;-77
2023/04/25 09:20:58;;;;;;;5.82;1.35;;;10.10;99.90;;;;;;5070172;28;20161;-75
2023/04/25 09:23:24;;;;;;;6.13;1.48;;;10.60;99.90;;;;;;5070774;28;20083;-77
2023/04/25 09:25:52;;;;;;;8.10;1.40;;;10.50;99.90;;;;;;5052528;28;20118;-77
2023/04/25 09:28:25;;;;;;;7.97;1.50;;;10.40;99.90;;;;;;5054016;28;20455;-78
2023/04/25 09:30:57;;;;;;;5.18;1.23;;;10.20;99.90;;;;;;5059108;28;20055;-77
2023/04/25 09:33:35;;;;;;;4.82;1.40;;;10.20;99.90;;;;;;5075133;28;20487;-78
2023/04/25 09:36:08;;;;;;;4.45;1.20;;;8.70;99.90;;;;;;5057887;28;20506;-77
2023/04/25 09:38:42;;;;;;;6.43;1.50;;;10.20;99.90;;;;;;5086543;28;20044;-78
2023/04/25 09:41:09;;;;;;;7.75;1.42;;;10.20;99.90;;;;;;5073443;28;20108;-77
2023/04/25 09:43:35;;;;;;;4.30;1.50;;;10.50;99.90;;;;;;5056718;28;20052;-77
2023/04/25 09:46:01;;;;;;;10.55;2.17;;;11.70;99.90;;;;;;5069201;28;20055;-77
2023/04/25 09:48:28;;;;;;;5.80;2.03;;;11.00;99.90;;;;;;5058532;28;20047;-78
2023/04/25 09:51:11;;;;;;;7.00;2.10;;;10.90;99.90;;;;;;5043094;28;20043;-77
2023/04/25 09:53:51;;;;;;;5.18;1.58;;;10.90;99.90;;;;;;5058827;28;20051;-78
2023/04/25 09:56:16;;;;;;;6.63;1.83;;;11.10;99.90;;;;;;5060280;28;20057;-78
2023/04/25 09:58:42;;;;;;;7.68;1.60;;;11.60;99.90;;;;;;5058192;28;20040;-78
2023/04/25 10:01:10;;;;;;;10.27;1.90;;;11.80;99.90;;;;;;5048576;28;20051;-77
2023/04/25 10:03:42;;;;;;;6.90;1.58;;;11.80;99.90;;;;;;5064074;28;20052;-79
2023/04/25 10:06:11;;;;;;;8.07;2.40;;;12.10;99.90;;;;;;5059629;28;20127;-78
2023/04/25 10:08:40;;;;;;;6.03;1.92;;;12.30;99.90;;;;;;5052473;28;20070;-78
2023/04/25 10:11:08;;;;;;;10.20;2.58;;;11.90;99.90;;;;;;5063760;28;20090;-77
2023/04/25 10:13:35;;;;;;;7.28;3.03;;;11.60;99.90;;;;;;5066231;28;20055;-78
2023/04/25 10:16:04;;;;;;;9.18;3.20;;;11.30;99.90;;;;;;5054236;28;20887;-79
2023/04/25 10:18:31;;;;;;;7.95;2.75;;;11.60;99.90;;;;;;5064654;28;21768;-77
2023/04/25 10:21:04;;;;;;;7.43;1.95;;;11.90;99.90;;;;;;5067322;28;20048;-79
2023/04/25 10:23:31;;;;;;;7.93;2.15;;;12.30;99.90;;;;;;5065709;28;20139;-79
2023/04/25 10:25:58;;;;;;;6.90;1.52;;;12.80;99.90;;;;;;5047561;28;20096;-79
2023/04/25 10:28:24;;;;;;;6.72;1.48;;;13.00;99.90;;;;;;5049473;28;20078;-78
2023/04/25 10:31:04;;;;;;;3.38;1.30;;;13.10;99.90;;;;;;5058281;28;20047;-77
2023/04/25 10:33:34;;;;;;;6.20;1.67;;;13.30;99.90;;;;;;5034483;28;20048;-77
2023/04/25 10:36:11;;;;;;;8.70;1.60;;;13.60;99.90;;;;;;5060513;28;20051;-78
2023/04/25 10:38:43;;;;;;;5.60;1.65;;;13.70;99.90;;;;;;5035193;28;20079;-78
2023/04/25 10:41:10;;;;;;;5.43;1.65;;;13.60;99.90;;;;;;5060507;28;20040;-78
2023/04/25 10:43:42;;;;;;;9.75;1.70;;;13.60;99.90;;;;;;5059562;28;20093;-77
2023/04/25 10:46:16;;;;;;;8.35;1.60;;;13.10;99.90;;;;;;5063534;28;20444;-77
2023/04/25 10:48:49;;;;;;;6.65;1.70;;;12.70;99.90;;;;;;5057950;28;20174;-78
2023/04/25 10:51:18;;;;;;;10.05;2.13;;;12.40;99.90;;;;;;5048035;28;20119;-78
2023/04/25 10:53:45;;;;;;;7.13;1.30;;;12.10;99.90;;;;;;5069422;28;21449;-76
2023/04/25 10:56:22;;;;;;;5.75;1.30;;;11.80;99.90;;;;;;5045334;28;20050;-78
2023/04/25 10:59:08;;;;;;;4.72;1.55;;;11.70;99.90;;;;;;5033077;28;20071;-76
2023/04/25 11:01:43;;;;;;;7.55;1.83;;;11.90;99.90;;;;;;5060180;28;20650;-76
2023/04/25 11:04:23;;;;;;;5.03;1.33;;;12.20;99.90;;;;;;5078425;28;20048;-77
2023/04/25 11:07:20;;;;;;;5.93;1.52;;;12.20;99.90;;;;;;5052516;28;20102;-76
2023/04/25 11:09:45;;;;;;;4.88;1.60;;;12.60;99.90;;;;;;5064039;28;20092;-77
2023/04/25 11:12:12;;;;;;;7.25;1.30;;;14.50;99.90;;;;;;5047718;28;20394;-78
2023/04/25 11:14:39;;;;;;;6.88;1.50;;;13.20;99.90;;;;;;5057459;28;20127;-77
2023/04/25 11:17:05;;;;;;;9.10;2.00;;;13.50;99.90;;;;;;5060859;28;20044;-77
2023/04/25 11:19:31;;;;;;;6.00;1.50;;;13.90;99.90;;;;;;5055211;28;20078;-77
2023/04/25 11:22:02;;;;;;;5.95;1.50;;;13.90;99.90;;;;;;5059068;28;20126;-77
2023/04/25 11:24:36;;;;;;;7.18;1.55;;;14.00;99.90;;;;;;5052956;28;20047;-77
2023/04/25 11:27:12;;;;;;;6.80;1.75;;;14.20;99.90;;;;;;5055935;28;20040;-76
2023/04/25 11:29:38;;;;;;;5.57;1.30;;;14.30;99.40;;;;;;5046320;28;20063;-77
2023/04/25 11:32:10;;;;;;;6.95;1.40;;;14.40;99.10;;;;;;5061477;28;20051;-77
2023/04/25 11:34:36;;;;;;;3.65;1.08;;;14.50;97.40;;;;;;5046275;28;20118;-76
2023/04/25 11:37:04;;;;;;;5.35;1.52;;;14.50;97.60;;;;;;5045744;28;20051;-76
2023/04/25 11:39:37;;;;;;;8.40;1.83;;;14.90;97.10;;;;;;5051770;28;21006;-77
2023/04/25 11:42:05;;;;;;;7.40;1.20;;;14.70;95.50;;;;;;5032351;28;20040;-78
2023/04/25 11:44:31;;;;;;;4.72;1.45;;;14.80;96.00;;;;;;5064974;28;20701;-78
2023/04/25 11:46:58;;;;;;;5.68;1.55;;;14.90;96.30;;;;;;5038518;28;20079;-77
2023/04/25 11:49:34;;;;;;;4.13;1.17;;;15.00;96.40;;;;;;5046198;28;20556;-78
2023/04/25 11:52:07;;;;;;;6.15;1.25;;;15.10;96.00;;;;;;5046138;28;20494;-78
2023/04/25 11:54:36;;;;;;;5.22;1.40;;;15.20;95.30;;;;;;5056382;28;20051;-79
2023/04/25 11:57:03;;;;;;;5.60;1.17;;;14.80;95.30;;;;;;5054854;28;20052;-77
2023/04/25 11:59:30;;;;;;;4.82;1.13;;;14.30;95.90;;;;;;5051313;28;21191;-78
2023/04/25 12:01:58;;;;;;;2.50;1.30;;;13.40;96.60;;;;;;5055700;28;20159;-77
2023/04/25 12:04:24;;;;;;;4.30;1.20;;;12.80;98.70;;;;;;5037902;28;20129;-77
2023/04/25 12:06:52;;;;;;;7.20;1.38;;;12.40;99.90;;;;;;5061163;28;20047;-77
2023/04/25 12:09:24;;;;;;;4.65;1.77;;;12.30;99.90;;;;;;5057856;28;20051;-77
2023/04/25 12:11:56;;;;;;;5.70;1.40;;;12.70;99.90;;;;;;5059876;28;20445;-78
2023/04/25 12:14:30;;;;;;;5.57;1.42;;;13.00;99.90;;;;;;5039123;28;20044;-77
2023/04/25 12:16:57;;;;;;;7.85;1.90;;;13.50;99.90;;;;;;5076123;28;20532;-77
2023/04/25 12:19:24;;;;;;;7.07;1.83;;;13.70;99.90;;;;;;5026175;28;20035;-78
2023/04/25 12:21:50;;;;;;;6.65;1.70;;;13.90;99.90;;;;;;5024464;28;20108;-78
2023/04/25 12:24:25;;;;;;;8.45;1.75;;;14.30;99.90;;;;;;5076215;28;20071;-78
2023/04/25 12:27:11;;;;;;;8.18;2.13;;;14.10;99.90;;;;;;5060748;28;20050;-77
2023/04/25 12:29:54;;;;;;;6.20;1.52;;;14.00;99.90;;;;;;5077889;28;20545;-77
2023/04/25 12:32:20;;;;;;;9.38;2.10;;;13.50;99.90;;;;;;5045682;28;20803;-77
2023/04/25 12:34:46;;;;;;;6.43;2.00;;;12.90;99.90;;;;;;5051888;28;20051;-77
2023/04/25 12:37:13;;;;;;;5.28;1.30;;;12.30;99.90;;;;;;5055628;28;20241;-78
2023/04/25 12:39:39;;;;;;;7.03;1.60;;;11.50;99.90;;;;;;5065116;28;20517;-78
2023/04/25 12:42:07;;;;;;;4.47;1.30;;;11.00;99.90;;;;;;5044778;28;20082;-77
2023/04/25 12:44:36;;;;;;;3.70;1.20;;;10.50;99.90;;;;;;5052784;28;20044;-75
2023/04/25 12:47:03;;;;;;;6.78;1.40;;;10.40;99.90;;;;;;5051908;28;20088;-78
2023/04/25 12:49:29;;;;;;;5.47;1.42;;;10.50;99.90;;;;;;5045137;28;20128;-76
2023/04/25 12:51:55;;;;;;;7.13;1.58;;;11.10;99.90;;;;;;5053533;28;20141;-77
2023/04/25 12:54:22;;;;;;;6.97;2.05;;;11.70;99.90;;;;;;5045057;28;20052;-77